createdAt,value
2022-08-02T00:01:26.167Z,100401.16
2022-08-02T00:03:30.071Z,100395.78
2022-08-02T00:05:35.977Z,100390.41
2022-08-02T00:07:41.349Z,100392.09
2022-08-02T00:09:45.246Z,100396.75
2022-08-02T00:11:48.845Z,100401.16
2022-08-02T00:13:52.542Z,100397.47
2022-08-02T00:15:56.005Z,100386.72
2022-08-02T00:17:59.867Z,100404.53
2022-08-02T00:20:03.655Z,100403.66
2022-08-02T00:22:09.216Z,100394.63
2022-08-02T00:24:29.943Z,100398.31
2022-08-02T00:26:34.484Z,100383.88
2022-08-02T00:28:38.481Z,100376.66
2022-08-02T00:30:41.969Z,100385.72
2022-08-02T00:32:46.138Z,100377.66
2022-08-02T00:34:49.727Z,100376.66
2022-08-02T00:36:53.385Z,100376.47
2022-08-02T00:38:58.641Z,100369.44
2022-08-02T00:41:02.241Z,100376.47
2022-08-02T00:43:08.287Z,100377.34
2022-08-02T00:45:12.262Z,100359.53
2022-08-02T00:47:19.529Z,100371.09
2022-08-02T00:49:23.901Z,100324.63
2022-08-02T00:51:28.224Z,100336.34
2022-08-02T00:53:31.894Z,100328.28
2022-08-02T00:55:37.578Z,100330.97
2022-08-02T00:57:41.075Z,100329.16
2022-08-02T00:59:44.762Z,100320.06
2022-08-02T01:01:56.279Z,100325.31
2022-08-02T01:04:01.294Z,100306.50
2022-08-02T01:06:12.195Z,100328.81
2022-08-02T01:08:15.945Z,100321.59
2022-08-02T01:10:20.309Z,100318.06
2022-08-02T01:12:25.794Z,100327.81
2022-08-02T01:14:29.497Z,100330.50
2022-08-02T01:16:37.345Z,100335.00
2022-08-02T01:18:45.520Z,100334.19
2022-08-02T01:21:07.286Z,100320.75
2022-08-02T01:23:30.873Z,100320.75
2022-08-02T01:25:58.521Z,100322.63
2022-08-02T01:28:29.749Z,100329.81
2022-08-02T01:30:36.257Z,100350.47
2022-08-02T01:32:46.329Z,100339.72
2022-08-02T01:34:56.740Z,100347.78
2022-08-02T01:37:05.220Z,100355.84
2022-08-02T01:39:27.565Z,100359.34
2022-08-02T01:41:37.075Z,100363.72
2022-08-02T01:43:45.899Z,100362.91
2022-08-02T01:45:50.023Z,100370.78
2022-08-02T01:47:56.068Z,100359.19
2022-08-02T01:50:01.348Z,100369.94
2022-08-02T01:52:26.392Z,100369.09
2022-08-02T01:54:34.289Z,100372.63
2022-08-02T01:56:38.018Z,100361.69
2022-08-02T01:58:45.402Z,100369.94
2022-08-02T02:00:51.099Z,100358.34
2022-08-02T02:02:58.530Z,100359.19
2022-08-02T02:05:03.439Z,100360.22
2022-08-02T02:07:08.384Z,100364.72
2022-08-02T02:09:13.708Z,100354.97
2022-08-02T02:12:09.478Z,100364.91
2022-08-02T02:13:43.465Z,100371.09
2022-08-02T02:15:49.420Z,100362.22
2022-08-02T02:18:12.547Z,100355.16
2022-08-02T02:20:19.725Z,100362.22
2022-08-02T02:22:23.149Z,100363.22
2022-08-02T02:24:28.955Z,100358.88
2022-08-02T02:26:33.269Z,100354.31
2022-08-02T02:28:41.246Z,100351.66
2022-08-02T02:30:50.565Z,100357.00
2022-08-02T02:32:56.972Z,100350.81
2022-08-02T02:35:02.822Z,100362.56
2022-08-02T02:37:10.203Z,100358.00
2022-08-02T02:39:15.717Z,100357.19
2022-08-02T02:41:21.331Z,100349.94
2022-08-02T02:43:26.428Z,100355.50
2022-08-02T02:45:31.579Z,100365.25
2022-08-02T02:47:40.779Z,100372.44
2022-08-02T02:49:47.509Z,100376.97
2022-08-02T02:51:51.839Z,100367.06
2022-08-02T02:54:30.783Z,100365.25
2022-08-02T02:56:21.744Z,100365.25
2022-08-02T02:58:28.932Z,100358.88
2022-08-02T03:00:50.071Z,100344.59
2022-08-02T03:02:54.926Z,100355.31
2022-08-02T03:05:02.823Z,100357.19
2022-08-02T03:07:06.176Z,100355.50
2022-08-02T03:09:11.555Z,100357.34
2022-08-02T03:11:15.328Z,100351.97
2022-08-02T03:13:19.961Z,100346.63
2022-08-02T03:15:25.050Z,100336.84
2022-08-02T03:17:39.028Z,100344.06
2022-08-02T03:19:43.729Z,100346.75
2022-08-02T03:21:48.155Z,100339.38
2022-08-02T03:24:00.698Z,100330.31
2022-08-02T03:26:04.082Z,100327.63
2022-08-02T03:28:07.365Z,100330.31
2022-08-02T03:30:12.902Z,100318.59
2022-08-02T03:32:16.408Z,100317.72
2022-08-02T03:34:20.031Z,100311.34
2022-08-02T03:36:27.183Z,100306.16
2022-08-02T03:38:33.779Z,100298.28
2022-08-02T03:40:38.198Z,100294.03
2022-08-02T03:42:42.378Z,100282.59
2022-08-02T03:44:46.030Z,100278.28
2022-08-02T03:46:50.088Z,100273.22
2022-08-02T03:48:54.450Z,100278.75
2022-08-02T03:50:58.258Z,100277.25
2022-08-02T03:53:03.354Z,100280.91
2022-08-02T03:55:07.378Z,100276.56
2022-08-02T03:57:11.756Z,100271.22
2022-08-02T03:59:16.586Z,100264.16
2022-08-02T04:01:20.131Z,100263.97
2022-08-02T04:03:23.862Z,100264.16
2022-08-02T04:05:27.276Z,100263.16
2022-08-02T04:08:33.850Z,100269.34
2022-08-02T04:09:55.541Z,100288.97
2022-08-02T04:11:58.910Z,100287.31
2022-08-02T04:14:04.635Z,100294.34
2022-08-02T04:16:13.759Z,100287.16
2022-08-02T04:18:19.163Z,100283.59
2022-08-02T04:20:26.410Z,100276.41
2022-08-02T04:22:36.454Z,100276.41
2022-08-02T04:24:44.910Z,100272.88
2022-08-02T04:26:50.960Z,100276.41
2022-08-02T04:28:55.715Z,100286.28
2022-08-02T04:31:00.073Z,100280.25
2022-08-02T04:33:03.479Z,100278.41
2022-08-02T04:35:22.970Z,100270.34
2022-08-02T04:37:27.667Z,100272.38
2022-08-02T04:39:31.139Z,100273.38
2022-08-02T04:41:44.307Z,100262.63
2022-08-02T04:43:49.218Z,100264.66
2022-08-02T04:45:54.376Z,100257.78
2022-08-02T04:48:05.953Z,100259.59
2022-08-02T04:50:10.593Z,100257.94
2022-08-02T04:52:14.373Z,100256.28
2022-08-02T04:54:17.781Z,100263.31
2022-08-02T04:56:21.075Z,100257.09
2022-08-02T04:58:39.796Z,100267.00
2022-08-02T05:00:45.791Z,100272.38
2022-08-02T05:02:49.399Z,100276.88
2022-08-02T05:04:52.730Z,100277.75
2022-08-02T05:06:56.031Z,100283.28
2022-08-02T05:08:59.435Z,100293.84
2022-08-02T05:11:02.706Z,100297.38
2022-08-02T05:13:07.377Z,100297.19
2022-08-02T05:15:13.820Z,100288.97
2022-08-02T05:17:18.654Z,100286.97
2022-08-02T05:19:22.041Z,100291.50
2022-08-02T05:21:25.401Z,100272.56
2022-08-02T05:23:28.647Z,100275.25
2022-08-02T05:25:32.083Z,100271.69
2022-08-02T05:27:35.390Z,100272.56
2022-08-02T05:29:38.674Z,100283.28
2022-08-02T05:31:42.067Z,100272.56
2022-08-02T05:33:46.722Z,100271.69
2022-08-02T05:35:50.019Z,100263.81
2022-08-02T05:37:53.374Z,100257.78
2022-08-02T05:39:56.632Z,100248.88
2022-08-02T05:41:59.948Z,100255.28
2022-08-02T05:44:03.407Z,100264.16
2022-08-02T05:46:06.993Z,100262.47
2022-08-02T05:48:10.331Z,100261.63
2022-08-02T05:50:15.067Z,100251.06
2022-08-02T05:52:20.313Z,100264.50
2022-08-02T05:54:28.885Z,100276.06
2022-08-02T05:56:36.434Z,100275.22
2022-08-02T05:58:52.215Z,100274.38
2022-08-02T06:00:57.702Z,100282.59
2022-08-02T06:03:16.768Z,100284.28
2022-08-02T06:05:22.718Z,100277.22
2022-08-02T06:07:26.491Z,100282.59
2022-08-02T06:09:30.476Z,100286.13
2022-08-02T06:11:38.525Z,100281.78
2022-08-02T06:13:42.756Z,100282.59
2022-08-02T06:15:53.213Z,100277.22
2022-08-02T06:17:58.537Z,100271.03
2022-08-02T06:20:02.368Z,100270.16
2022-08-02T06:22:35.977Z,100266.66
2022-08-02T06:24:39.556Z,100280.25
2022-08-02T06:26:44.396Z,100290.00
2022-08-02T06:28:49.532Z,100288.81
2022-08-02T06:30:52.920Z,100275.22
2022-08-02T06:32:57.010Z,100283.94
2022-08-02T06:35:00.334Z,100285.63
2022-08-02T06:37:15.250Z,100290.81
2022-08-02T06:39:23.595Z,100305.06
2022-08-02T06:41:27.450Z,100307.63
2022-08-02T06:43:39.755Z,100289.84
2022-08-02T06:45:43.143Z,100286.16
2022-08-02T06:47:46.549Z,100299.41
2022-08-02T06:49:52.243Z,100294.50
2022-08-02T06:51:57.900Z,100294.22
2022-08-02T06:54:02.759Z,100292.69
2022-08-02T06:56:07.232Z,100302.09
2022-08-02T06:58:13.492Z,100292.38
2022-08-02T07:00:17.054Z,100300.59
2022-08-02T07:02:21.504Z,100302.47
2022-08-02T07:04:25.453Z,100298.09
2022-08-02T07:06:29.213Z,100302.63
2022-08-02T07:08:33.117Z,100302.09
2022-08-02T07:10:37.861Z,100310.16
2022-08-02T07:12:41.404Z,100313.34
2022-08-02T07:14:44.664Z,100313.34
2022-08-02T07:16:48.071Z,100304.44
2022-08-02T07:18:51.492Z,100305.94
2022-08-02T07:20:55.618Z,100321.72
2022-08-02T07:22:59.052Z,100315.16
2022-08-02T07:25:02.671Z,100331.81
2022-08-02T07:27:11.763Z,100328.13
2022-08-02T07:29:15.763Z,100329.59
2022-08-02T07:31:19.299Z,100332.97
2022-08-02T07:33:38.446Z,100326.59
2022-08-02T07:35:43.310Z,100349.78
2022-08-02T07:37:55.660Z,100335.31
2022-08-02T07:40:01.653Z,100336.81
2022-08-02T07:42:08.249Z,100328.56
2022-08-02T07:44:11.554Z,100331.94
2022-08-02T07:46:14.969Z,100329.25
2022-08-02T07:48:18.369Z,100330.09
2022-08-02T07:50:22.864Z,100325.56
2022-08-02T07:52:26.386Z,100320.19
2022-08-02T07:54:29.977Z,100316.66
2022-08-02T07:56:33.321Z,100307.75
2022-08-02T07:58:38.737Z,100317.50
2022-08-02T08:00:44.091Z,100321.84
2022-08-02T08:02:48.285Z,100322.69
2022-08-02T08:04:51.600Z,100328.56
2022-08-02T08:06:55.425Z,100323.00
2022-08-02T08:08:59.030Z,100332.59
2022-08-02T08:11:02.249Z,100317.47
2022-08-02T08:13:05.851Z,100331.75
2022-08-02T08:15:11.729Z,100336.13
2022-08-02T08:17:15.129Z,100336.97
2022-08-02T08:19:18.397Z,100330.75
2022-08-02T08:21:21.745Z,100335.09
2022-08-02T08:23:24.996Z,100340.31
2022-08-02T08:25:28.761Z,100340.47
2022-08-02T08:27:33.052Z,100339.00
2022-08-02T08:29:36.450Z,100333.44
2022-08-02T08:31:41.218Z,100344.03
2022-08-02T08:33:44.619Z,100343.84
2022-08-02T08:35:47.958Z,100343.66
2022-08-02T08:37:51.300Z,100335.44
2022-08-02T08:39:57.850Z,100341.66
2022-08-02T08:42:02.723Z,100345.34
2022-08-02T08:44:06.390Z,100348.41
2022-08-02T08:46:12.129Z,100357.63
2022-08-02T08:48:21.800Z,100344.69
2022-08-02T08:50:39.779Z,100349.25
2022-08-02T08:52:44.587Z,100348.06
2022-08-02T08:54:49.751Z,100350.06
2022-08-02T08:56:55.912Z,100337.28
2022-08-02T08:58:59.423Z,100340.59
2022-08-02T09:01:03.039Z,100334.38
2022-08-02T09:03:08.633Z,100339.53
2022-08-02T09:05:16.033Z,100344.69
2022-08-02T09:07:19.373Z,100343.00
2022-08-02T09:09:22.893Z,100343.16
2022-08-02T09:11:27.007Z,100340.56
2022-08-02T09:13:44.980Z,100354.81
2022-08-02T09:15:56.518Z,100351.41
2022-08-02T09:17:59.754Z,100351.06
2022-08-02T09:20:10.613Z,100343.28
2022-08-02T09:22:16.356Z,100352.31
2022-08-02T09:24:21.214Z,100347.00
2022-08-02T09:26:25.929Z,100352.59
2022-08-02T09:28:30.176Z,100349.31
2022-08-02T09:30:33.876Z,100347.66
2022-08-02T09:32:46.672Z,100344.28
2022-08-02T09:34:52.075Z,100343.38
2022-08-02T09:36:55.433Z,100346.53
2022-08-02T09:39:02.697Z,100343.06
2022-08-02T09:41:07.376Z,100334.78
2022-08-02T09:43:11.080Z,100337.69
2022-08-02T09:45:14.408Z,100340.75
2022-08-02T09:47:18.258Z,100342.16
2022-08-02T09:49:21.997Z,100344.75
2022-08-02T09:51:28.414Z,100350.97
2022-08-02T09:53:32.484Z,100338.97
2022-08-02T09:55:37.350Z,100347.75
2022-08-02T09:57:40.772Z,100347.38
2022-08-02T09:59:54.689Z,100351.16
2022-08-02T10:02:17.127Z,100348.19
2022-08-02T10:04:22.533Z,100350.97
2022-08-02T10:06:26.374Z,100343.06
2022-08-02T10:08:33.289Z,100363.75
2022-08-02T10:10:38.485Z,100356.13
2022-08-02T10:12:41.928Z,100354.97
2022-08-02T10:14:46.887Z,100354.97
2022-08-02T10:16:50.280Z,100360.75
2022-08-02T10:18:55.590Z,100367.09
2022-08-02T10:21:02.996Z,100370.72
2022-08-02T10:23:07.675Z,100372.84
2022-08-02T10:25:11.569Z,100377.16
2022-08-02T10:27:20.498Z,100378.63
2022-08-02T10:29:44.792Z,100382.59
2022-08-02T10:31:58.603Z,100377.28
2022-08-02T10:34:04.543Z,100377.34
2022-08-02T10:36:09.850Z,100382.41
2022-08-02T10:38:14.136Z,100384.16
2022-08-02T10:40:24.391Z,100371.44
2022-08-02T10:42:48.753Z,100377.16
2022-08-02T10:45:10.697Z,100379.84
2022-08-02T10:47:26.164Z,100376.44
2022-08-02T10:49:39.640Z,100387.81
2022-08-02T10:52:17.355Z,100383.03
2022-08-02T10:54:22.137Z,100387.34
2022-08-02T10:56:47.428Z,100388.91
2022-08-02T10:59:24.978Z,100380.59
2022-08-02T11:01:38.600Z,100387.75
2022-08-02T11:03:46.719Z,100381.53
2022-08-02T11:06:03.187Z,100383.41
2022-08-02T11:08:20.805Z,100388.13
2022-08-02T11:10:41.466Z,100390.84
2022-08-02T11:13:01.793Z,100387.50
2022-08-02T11:15:08.179Z,100392.03
2022-08-02T11:17:16.562Z,100394.09
2022-08-02T11:19:20.387Z,100397.59
2022-08-02T11:21:25.034Z,100390.91
2022-08-02T11:23:44.951Z,100385.88
2022-08-02T11:26:11.188Z,100393.97
2022-08-02T11:28:14.537Z,100393.78
2022-08-02T11:30:20.131Z,100385.13
2022-08-02T11:32:31.509Z,100385.25
2022-08-02T11:34:38.026Z,100380.38
2022-08-02T11:39:10.575Z,100385.19
2022-08-02T11:41:46.156Z,100385.00
2022-08-02T11:43:45.118Z,100391.28
2022-08-02T11:45:52.655Z,100384.19
2022-08-02T11:47:56.475Z,100379.63
2022-08-02T11:50:06.916Z,100381.13
2022-08-02T11:52:11.794Z,100389.78
2022-08-02T11:54:24.962Z,100382.16
2022-08-02T11:56:31.225Z,100381.03
2022-08-02T11:58:34.927Z,100373.97
2022-08-02T12:00:38.806Z,100373.97
2022-08-02T12:02:48.693Z,100374.25
2022-08-02T12:04:58.472Z,100383.53
2022-08-02T12:07:03.900Z,100377.19
2022-08-02T12:09:18.198Z,100368.13
2022-08-02T12:11:22.848Z,100366.16
2022-08-02T12:13:26.450Z,100372.06
2022-08-02T12:15:38.419Z,100357.81
2022-08-02T12:18:05.124Z,100357.88
2022-08-02T12:20:09.328Z,100354.03
2022-08-02T12:22:27.418Z,100350.47
2022-08-02T12:24:31.436Z,100350.72
2022-08-02T12:26:44.247Z,100343.38
2022-08-02T12:28:47.907Z,100340.47
2022-08-02T12:30:53.848Z,100340.94
2022-08-02T12:33:12.930Z,100339.97
2022-08-02T12:35:26.103Z,100347.06
2022-08-02T12:37:30.702Z,100337.53
2022-08-02T12:39:40.795Z,100342.78
2022-08-02T12:41:55.138Z,100344.25
2022-08-02T12:43:59.153Z,100340.97
2022-08-02T12:46:02.937Z,100338.91
2022-08-02T12:48:08.198Z,100337.41
2022-08-02T12:50:17.000Z,100347.16
2022-08-02T12:52:21.519Z,100336.34
2022-08-02T12:54:31.077Z,100332.84
2022-08-02T12:56:39.579Z,100334.34
2022-08-02T12:58:50.446Z,100325.69
2022-08-02T13:00:55.802Z,100319.09
2022-08-02T13:03:00.105Z,100327.66
2022-08-02T13:05:05.833Z,100329.53
2022-08-02T13:07:09.462Z,100335.31
2022-08-02T13:09:16.239Z,100339.63
2022-08-02T13:11:19.905Z,100339.22
2022-08-02T13:13:23.630Z,100328.34
2022-08-02T13:15:49.686Z,100327.50
2022-08-02T13:17:51.200Z,100341.44
2022-08-02T13:19:54.925Z,100339.91
2022-08-02T13:22:11.187Z,100331.38
2022-08-02T13:24:33.262Z,100337.00
2022-08-02T13:26:40.213Z,100332.91
2022-08-02T13:28:44.223Z,100332.53
2022-08-02T13:30:47.834Z,100336.47
2022-08-02T13:32:51.485Z,100326.22
2022-08-02T13:34:55.289Z,100328.75
2022-08-02T13:37:00.342Z,100327.91
2022-08-02T13:39:05.662Z,100316.22
2022-08-02T13:41:13.766Z,100327.81
2022-08-02T13:43:17.569Z,100320.50
2022-08-02T13:45:21.185Z,100321.06
2022-08-02T13:47:35.925Z,100330.56
2022-08-02T13:49:51.248Z,100332.56
2022-08-02T13:51:55.775Z,100332.13
2022-08-02T13:54:00.906Z,100319.03
2022-08-02T13:56:04.967Z,100315.94
2022-08-02T13:58:08.454Z,100309.31
2022-08-02T14:00:13.694Z,100314.50
2022-08-02T14:02:18.590Z,100302.41
2022-08-02T14:04:22.428Z,100306.78
2022-08-02T14:06:26.129Z,100294.75
2022-08-02T14:08:29.792Z,100306.22
2022-08-02T14:10:34.827Z,100297.91
2022-08-02T14:12:38.484Z,100305.16
2022-08-02T14:14:42.411Z,100300.63
2022-08-02T14:16:46.581Z,100293.97
2022-08-02T14:18:50.370Z,100302.91
2022-08-02T14:20:55.104Z,100302.09
2022-08-02T14:22:58.936Z,100299.38
2022-08-02T14:25:09.035Z,100298.94
2022-08-02T14:27:15.963Z,100305.13
2022-08-02T14:29:19.880Z,100292.00
2022-08-02T14:31:23.586Z,100298.69
2022-08-02T14:33:30.298Z,100292.69
2022-08-02T14:35:34.585Z,100285.88
2022-08-02T14:37:38.318Z,100293.38
2022-08-02T14:39:43.705Z,100288.63
2022-08-02T14:42:03.571Z,100279.50
2022-08-02T14:44:09.649Z,100265.75
2022-08-02T14:46:13.292Z,100279.28
2022-08-02T14:48:16.987Z,100274.94
2022-08-02T14:50:20.740Z,100267.38
2022-08-02T14:52:24.503Z,100273.66
2022-08-02T14:54:31.191Z,100271.56
2022-08-02T14:56:35.407Z,100269.13
2022-08-02T14:58:39.033Z,100271.81
2022-08-02T15:00:45.416Z,100258.91
2022-08-02T15:02:49.368Z,100275.16
2022-08-02T15:04:53.044Z,100277.03
2022-08-02T15:06:56.869Z,100281.78
2022-08-02T15:09:01.239Z,100263.66
2022-08-02T15:11:06.441Z,100269.84
2022-08-02T15:13:10.148Z,100270.25
2022-08-02T15:15:13.682Z,100264.03
2022-08-02T15:17:18.823Z,100264.03
2022-08-02T15:19:22.343Z,100264.28
2022-08-02T15:21:52.667Z,100265.53
2022-08-02T15:23:51.860Z,100257.44
2022-08-02T15:25:55.416Z,100252.84
2022-08-02T15:27:59.091Z,100253.66
2022-08-02T15:30:02.802Z,100259.97
2022-08-02T15:32:07.834Z,100251.69
2022-08-02T15:34:13.119Z,100268.97
2022-08-02T15:36:16.915Z,100248.41
2022-08-02T15:38:21.076Z,100247.16
2022-08-02T15:40:24.885Z,100255.31
2022-08-02T15:42:30.705Z,100256.41
2022-08-02T15:44:34.587Z,100261.84
2022-08-02T15:46:39.610Z,100260.16
2022-08-02T15:48:43.354Z,100262.06
2022-08-02T15:50:48.578Z,100258.50
2022-08-02T15:52:52.224Z,100252.66
2022-08-02T15:54:56.302Z,100254.34
2022-08-02T15:56:59.834Z,100250.19
2022-08-02T15:59:03.887Z,100240.00
2022-08-02T16:01:07.868Z,100241.28
2022-08-02T16:03:11.652Z,100240.25
2022-08-02T16:05:15.446Z,100235.22
2022-08-02T16:07:20.547Z,100236.03
2022-08-02T16:09:24.263Z,100233.31
2022-08-02T16:11:27.865Z,100235.13
2022-08-02T16:13:53.640Z,100237.56
2022-08-02T16:15:59.016Z,100232.94
2022-08-02T16:18:02.821Z,100237.34
2022-08-02T16:20:07.818Z,100235.44
2022-08-02T16:22:11.965Z,100232.97
2022-08-02T16:24:17.447Z,100233.00
2022-08-02T16:26:21.532Z,100229.53
2022-08-02T16:28:25.378Z,100233.50
2022-08-02T16:30:29.485Z,100230.16
2022-08-02T16:32:33.013Z,100220.19
2022-08-02T16:34:57.147Z,100240.97
2022-08-02T16:37:00.706Z,100229.13
2022-08-02T16:39:05.168Z,100225.78
2022-08-02T16:41:10.671Z,100223.44
2022-08-02T16:43:14.171Z,100226.56
2022-08-02T16:45:20.204Z,100224.28
2022-08-02T16:47:36.996Z,100225.31
2022-08-02T16:50:06.636Z,100220.50
2022-08-02T16:52:10.887Z,100211.78
2022-08-02T16:54:15.138Z,100212.59
2022-08-02T16:56:24.160Z,100219.28
2022-08-02T16:58:27.812Z,100212.63
2022-08-02T17:00:31.533Z,100218.50
2022-08-02T17:02:35.689Z,100205.59
2022-08-02T17:04:43.477Z,100206.44
2022-08-02T17:06:52.090Z,100208.09
2022-08-02T17:08:57.086Z,100204.13
2022-08-02T17:11:03.406Z,100210.94
2022-08-02T17:13:26.466Z,100203.25
2022-08-02T17:16:08.002Z,100198.03
2022-08-02T17:17:54.514Z,100194.72
2022-08-02T17:19:58.303Z,100200.31
2022-08-02T17:22:04.097Z,100203.41
2022-08-02T17:24:08.854Z,100190.31
2022-08-02T17:26:13.384Z,100207.13
2022-08-02T17:28:17.258Z,100205.84
2022-08-02T17:30:26.568Z,100198.34
2022-08-02T17:32:31.327Z,100210.00
2022-08-02T17:34:35.622Z,100204.34
2022-08-02T17:36:39.636Z,100196.19
2022-08-02T17:38:51.783Z,100197.63
2022-08-02T17:40:56.156Z,100196.38
2022-08-02T17:43:00.000Z,100207.38
2022-08-02T17:45:16.165Z,100203.00
2022-08-02T17:47:22.544Z,100204.03
2022-08-02T17:49:26.232Z,100200.31
2022-08-02T17:52:14.797Z,100204.69
2022-08-02T17:53:54.044Z,100200.31
2022-08-02T17:56:00.092Z,100200.91
2022-08-02T17:58:03.806Z,100192.75
2022-08-02T18:00:10.535Z,100190.81
2022-08-02T18:02:16.833Z,100199.75
2022-08-02T18:04:26.898Z,100195.84
2022-08-02T18:06:31.869Z,100190.25
2022-08-02T18:08:36.832Z,100195.72
2022-08-02T18:10:41.317Z,100203.63
2022-08-02T18:12:46.271Z,100193.47
2022-08-02T18:14:51.431Z,100207.19
2022-08-02T18:16:55.189Z,100197.38
2022-08-02T18:18:59.180Z,100203.00
2022-08-02T18:21:15.635Z,100199.66
2022-08-02T18:23:20.126Z,100202.75
2022-08-02T18:25:37.404Z,100195.66
2022-08-02T18:27:47.705Z,100208.69
2022-08-02T18:30:03.993Z,100207.03
2022-08-02T18:32:11.594Z,100213.72
2022-08-02T18:34:15.875Z,100204.00
2022-08-02T18:36:24.703Z,100201.09
2022-08-02T18:38:31.281Z,100204.44
2022-08-02T18:40:34.857Z,100210.47
2022-08-02T18:42:38.474Z,100201.53
2022-08-02T18:44:43.316Z,100197.34
2022-08-02T18:46:49.402Z,100194.03
2022-08-02T18:48:53.665Z,100203.16
2022-08-02T18:50:59.845Z,100213.31
2022-08-02T18:53:05.007Z,100206.84
2022-08-02T18:55:17.632Z,100207.88
2022-08-02T18:58:03.203Z,100209.34
2022-08-02T19:00:00.967Z,100205.34
2022-08-02T19:02:04.874Z,100206.78
2022-08-02T19:04:08.776Z,100201.97
2022-08-02T19:06:12.404Z,100210.03
2022-08-02T19:08:18.318Z,100209.34
2022-08-02T19:10:22.095Z,100210.53
2022-08-02T19:12:28.238Z,100216.63
2022-08-02T19:14:32.567Z,100207.59
2022-08-02T19:16:37.805Z,100205.88
2022-08-02T19:18:41.925Z,100206.63
2022-08-02T19:20:48.295Z,100202.91
2022-08-02T19:22:53.722Z,100201.09
2022-08-02T19:25:00.082Z,100202.25
2022-08-02T19:27:13.823Z,100206.09
2022-08-02T19:29:18.859Z,100195.34
2022-08-02T19:32:40.288Z,100198.44
2022-08-02T19:34:08.144Z,100195.22
2022-08-02T19:36:12.059Z,100194.28
2022-08-02T19:38:15.723Z,100188.75
2022-08-02T19:40:24.346Z,100196.72
2022-08-02T19:42:28.562Z,100186.78
2022-08-02T19:44:32.595Z,100190.00
2022-08-02T19:46:36.192Z,100202.97
2022-08-02T19:48:41.205Z,100199.75
2022-08-02T19:50:49.226Z,100208.75
2022-08-02T19:52:53.466Z,100209.06
2022-08-02T19:54:59.650Z,100216.22
2022-08-02T19:57:22.598Z,100217.13
2022-08-02T19:59:26.414Z,100208.75
2022-08-02T20:01:38.709Z,100214.72
2022-08-02T20:03:51.418Z,100213.41
2022-08-02T20:05:56.561Z,100208.56
2022-08-02T20:08:00.772Z,100207.44
2022-08-02T20:10:06.264Z,100210.72
2022-08-02T20:12:15.642Z,100199.66
2022-08-02T20:14:26.749Z,100195.53
2022-08-02T20:16:33.040Z,100200.19
2022-08-02T20:18:37.530Z,100198.03
2022-08-02T20:20:44.627Z,100191.34
2022-08-02T20:23:33.342Z,100202.84
2022-08-02T20:25:29.610Z,100196.97
2022-08-02T20:27:33.137Z,100208.28
2022-08-02T20:29:43.444Z,100206.97
2022-08-02T20:31:49.119Z,100212.06
2022-08-02T20:33:55.490Z,100209.06
2022-08-02T20:36:01.689Z,100215.00
2022-08-02T20:38:06.146Z,100223.59
2022-08-02T20:40:16.611Z,100215.06
2022-08-02T20:42:23.025Z,100220.78
2022-08-02T20:44:30.105Z,100229.03
2022-08-02T20:46:36.404Z,100230.72
2022-08-02T20:48:41.174Z,100234.44
2022-08-02T20:50:52.294Z,100234.44
2022-08-02T20:52:57.272Z,100236.09
2022-08-02T20:55:03.001Z,100246.88
2022-08-02T20:57:07.149Z,100246.88
2022-08-02T20:59:16.118Z,100252.25
2022-08-02T21:01:21.099Z,100252.44
2022-08-02T21:03:39.102Z,100253.81
2022-08-02T21:05:54.775Z,100264.28
2022-08-02T21:08:02.714Z,100264.31
2022-08-02T21:10:07.824Z,100260.50
2022-08-02T21:12:12.860Z,100260.00
2022-08-02T21:14:16.760Z,100253.13
2022-08-02T21:16:22.369Z,100260.53
2022-08-02T21:18:40.317Z,100263.78
2022-08-02T21:20:44.595Z,100261.22
2022-08-02T21:22:48.346Z,100266.31
2022-08-02T21:24:52.820Z,100270.00
2022-08-02T21:26:56.914Z,100259.63
2022-08-02T21:29:01.056Z,100271.91
2022-08-02T21:31:07.043Z,100276.44
2022-08-02T21:33:23.440Z,100280.28
2022-08-02T21:35:30.152Z,100276.06
2022-08-02T21:37:45.052Z,100281.81
2022-08-02T21:39:49.953Z,100275.44
2022-08-02T21:41:54.130Z,100282.00
2022-08-02T21:44:03.304Z,100278.47
2022-08-02T21:46:09.769Z,100279.47
2022-08-02T21:48:18.129Z,100282.16
2022-08-02T21:50:22.162Z,100291.25
2022-08-02T21:52:28.128Z,100288.91
2022-08-02T21:54:31.646Z,100288.91
2022-08-02T21:56:37.749Z,100291.09
2022-08-02T21:58:43.794Z,100282.56
2022-08-02T22:00:47.334Z,100288.25
2022-08-02T22:02:51.028Z,100297.66
2022-08-02T22:04:55.721Z,100294.66
2022-08-02T22:07:00.615Z,100302.06
2022-08-02T22:09:05.765Z,100304.94
2022-08-02T22:11:21.533Z,100304.25
2022-08-02T22:13:25.161Z,100311.47
2022-08-02T22:15:42.083Z,100308.28
2022-08-02T22:20:15.522Z,100309.81
2022-08-02T22:22:28.232Z,100300.06
2022-08-02T22:24:34.070Z,100307.81
2022-08-02T22:26:38.032Z,100309.81
2022-08-02T22:28:51.012Z,100306.47
2022-08-02T22:30:57.440Z,100304.78
2022-08-02T22:33:19.467Z,100304.28
2022-08-02T22:35:23.175Z,100303.81
2022-08-02T22:38:16.208Z,100298.56
2022-08-02T22:40:05.966Z,100304.81
2022-08-02T22:42:13.141Z,100300.78
2022-08-02T22:44:20.023Z,100293.06
2022-08-02T22:46:26.467Z,100296.06
2022-08-02T22:48:30.395Z,100301.44
2022-08-02T22:50:34.428Z,100298.91
2022-08-02T22:52:38.121Z,100297.41
2022-08-02T22:54:43.374Z,100310.84
2022-08-02T22:56:48.671Z,100301.25
2022-08-02T22:59:12.384Z,100310.16
2022-08-02T23:01:16.303Z,100312.19
2022-08-02T23:03:19.786Z,100310.66
2022-08-02T23:05:23.387Z,100303.09
2022-08-02T23:07:27.290Z,100305.44
2022-08-02T23:09:30.895Z,100298.53
2022-08-02T23:11:34.601Z,100297.88
2022-08-02T23:13:39.771Z,100300.91
2022-08-02T23:16:00.889Z,100301.06
2022-08-02T23:18:21.751Z,100299.56
2022-08-02T23:20:26.680Z,100297.72
2022-08-02T23:22:32.374Z,100298.72
2022-08-02T23:24:36.273Z,100294.19
2022-08-02T23:26:39.937Z,100296.88
2022-08-02T23:28:45.083Z,100305.59
2022-08-02T23:30:48.603Z,100309.09
2022-08-02T23:32:52.577Z,100310.13
2022-08-02T23:34:57.701Z,100300.22
2022-08-02T23:37:04.077Z,100304.78
2022-08-02T23:39:08.081Z,100303.44
2022-08-02T23:41:11.642Z,100304.75
2022-08-02T23:43:15.525Z,100312.97
2022-08-02T23:45:20.792Z,100304.41
2022-08-02T23:47:24.526Z,100318.47
2022-08-02T23:49:28.596Z,100308.06
2022-08-02T23:51:32.201Z,100310.09
2022-08-02T23:53:35.917Z,100319.31
2022-08-02T23:55:42.137Z,100309.91
2022-08-02T23:57:45.740Z,100317.78
2022-08-02T23:59:49.362Z,100315.72
